Time;durP1;ratioP1;P1;durP2;ratioP2;P2;SDS_P1;SDS_P2;PMS_P1;PMS_P2;Temp;Humidity;BMP_temperature;BMP_pressure;BME280_temperature;BME280_humidity;BME280_pressure;Samples;Min_cycle;Max_cycle;Signal;HPM_P1;HPM_P2
2020/12/27 00:00:23;;;;;;;12.48;4.00;;;4.50;99.90;;;;;;4994338;28;20397;-54
2020/12/27 00:02:49;;;;;;;13.25;4.25;;;4.50;99.90;;;;;;4994851;28;20038;-54
2020/12/27 00:05:15;;;;;;;12.68;4.00;;;4.50;99.90;;;;;;5011926;28;20041;-58
2020/12/27 00:07:41;;;;;;;10.73;3.55;;;4.60;99.90;;;;;;5012409;28;20026;-54
2020/12/27 00:10:06;;;;;;;12.82;4.30;;;4.60;99.90;;;;;;4993387;28;20060;-55
2020/12/27 00:12:32;;;;;;;11.77;3.60;;;4.60;99.90;;;;;;5012056;28;20030;-53
2020/12/27 00:14:58;;;;;;;10.23;3.20;;;4.60;99.90;;;;;;5012176;28;20018;-56
2020/12/27 00:17:23;;;;;;;9.48;3.60;;;4.60;99.90;;;;;;4997142;28;20501;-59
2020/12/27 00:19:49;;;;;;;11.00;3.67;;;4.60;99.90;;;;;;5031114;28;20056;-52
2020/12/27 00:22:15;;;;;;;10.13;3.30;;;4.70;99.90;;;;;;5031731;28;20099;-55
2020/12/27 00:24:41;;;;;;;11.23;3.42;;;4.70;99.90;;;;;;5032051;28;20034;-55
2020/12/27 00:27:07;;;;;;;9.05;3.30;;;4.70;99.90;;;;;;5014035;28;20044;-57
2020/12/27 00:29:32;;;;;;;10.07;3.22;;;4.70;99.90;;;;;;5013688;28;20067;-54
2020/12/27 00:31:58;;;;;;;11.25;3.53;;;4.70;99.90;;;;;;5032132;28;20026;-56
2020/12/27 00:34:24;;;;;;;7.90;3.13;;;4.70;99.90;;;;;;5031519;28;20072;-55
2020/12/27 00:36:56;;;;;;;8.73;3.17;;;4.70;99.90;;;;;;5013821;28;20087;-56
2020/12/27 00:39:21;;;;;;;10.90;3.40;;;4.70;99.90;;;;;;5014074;28;20029;-56
2020/12/27 00:41:48;;;;;;;10.50;3.42;;;4.70;99.90;;;;;;4666092;28;9999959;-57
2020/12/27 00:44:14;;;;;;;10.73;3.55;;;4.70;99.90;;;;;;4992702;28;20056;-55
2020/12/27 00:46:40;;;;;;;11.20;3.50;;;4.60;99.90;;;;;;5010801;28;20478;-56
2020/12/27 00:49:05;;;;;;;11.98;3.47;;;4.60;99.90;;;;;;4994671;28;20026;-57
2020/12/27 00:51:31;;;;;;;11.05;3.35;;;4.60;99.90;;;;;;4994955;28;20519;-57
2020/12/27 00:53:57;;;;;;;12.43;4.03;;;4.60;99.90;;;;;;4994722;28;20034;-58
2020/12/27 00:56:23;;;;;;;10.02;3.20;;;4.50;99.90;;;;;;5012011;28;20064;-57
2020/12/27 00:58:49;;;;;;;10.68;3.35;;;4.40;99.90;;;;;;5011975;28;20120;-56
2020/12/27 01:01:15;;;;;;;9.73;3.22;;;4.50;99.90;;;;;;5012233;28;20033;-56
2020/12/27 01:03:42;;;;;;;10.18;3.38;;;4.50;99.90;;;;;;4994834;28;20025;-57
2020/12/27 01:06:08;;;;;;;11.27;3.90;;;4.60;99.90;;;;;;4994746;28;20033;-56
2020/12/27 01:08:34;;;;;;;9.57;3.30;;;4.60;99.90;;;;;;5012000;28;20397;-56
2020/12/27 01:11:01;;;;;;;11.10;3.10;;;4.60;99.90;;;;;;5010630;28;20091;-56
2020/12/27 01:13:27;;;;;;;9.77;3.10;;;4.60;99.90;;;;;;5013937;28;20025;-57
2020/12/27 01:15:53;;;;;;;8.20;2.97;;;4.60;99.90;;;;;;5031771;28;20067;-55
2020/12/27 01:18:19;;;;;;;13.43;3.65;;;4.70;99.90;;;;;;5031459;28;20030;-56
2020/12/27 01:20:45;;;;;;;9.07;3.20;;;4.60;99.90;;;;;;5014703;28;20021;-56
2020/12/27 01:23:10;;;;;;;9.80;3.30;;;4.70;99.90;;;;;;5018238;28;20124;-59
2020/12/27 01:25:36;;;;;;;10.40;3.35;;;4.60;99.90;;;;;;5035840;28;20067;-57
2020/12/27 01:28:02;;;;;;;9.00;3.17;;;4.60;99.90;;;;;;5035941;28;20033;-57
2020/12/27 01:30:28;;;;;;;10.20;3.40;;;4.60;99.90;;;;;;5017885;28;20025;-57
2020/12/27 01:32:53;;;;;;;11.65;3.42;;;4.50;99.90;;;;;;5017635;28;20030;-59
2020/12/27 01:35:19;;;;;;;8.50;3.15;;;4.50;99.90;;;;;;5017772;28;20022;-57
2020/12/27 01:37:45;;;;;;;10.63;3.33;;;4.50;99.90;;;;;;5018241;28;20030;-57
2020/12/27 01:40:11;;;;;;;8.38;2.90;;;4.50;99.90;;;;;;5009421;28;20109;-58
2020/12/27 01:42:37;;;;;;;8.98;2.97;;;4.50;99.90;;;;;;5035753;28;20056;-54
2020/12/27 01:45:04;;;;;;;9.75;3.42;;;4.50;99.90;;;;;;5035339;28;20025;-57
2020/12/27 01:47:33;;;;;;;9.48;2.92;;;4.50;99.90;;;;;;5035253;28;20025;-59
2020/12/27 01:49:59;;;;;;;10.32;3.28;;;4.40;99.90;;;;;;5017294;28;20025;-57
2020/12/27 01:52:25;;;;;;;12.57;4.00;;;4.40;99.90;;;;;;5035237;28;20029;-59
2020/12/27 01:54:51;;;;;;;9.88;3.70;;;4.40;99.90;;;;;;5035267;28;20495;-57
2020/12/27 01:57:21;;;;;;;9.73;3.58;;;4.40;99.90;;;;;;5035232;28;20029;-56
2020/12/27 01:59:46;;;;;;;10.23;3.30;;;4.40;99.90;;;;;;5017130;28;20388;-57
2020/12/27 02:02:17;;;;;;;8.80;3.25;;;4.40;99.90;;;;;;5017332;28;20022;-58
2020/12/27 02:04:43;;;;;;;9.77;3.30;;;4.40;99.90;;;;;;5017605;28;20022;-55
2020/12/27 02:07:11;;;;;;;9.07;2.95;;;4.40;99.90;;;;;;5035265;28;20044;-58
2020/12/27 02:09:39;;;;;;;8.85;3.35;;;4.30;99.90;;;;;;5017145;28;20029;-57
2020/12/27 02:12:10;;;;;;;7.78;2.97;;;4.30;99.90;;;;;;5017331;28;20034;-59
2020/12/27 02:14:37;;;;;;;7.32;2.78;;;4.30;99.90;;;;;;5017529;28;20029;-57
2020/12/27 02:17:04;;;;;;;8.05;3.10;;;4.30;99.90;;;;;;5016841;28;20018;-56
2020/12/27 02:19:30;;;;;;;7.22;2.78;;;4.30;99.90;;;;;;5034594;28;20118;-59
2020/12/27 02:21:56;;;;;;;7.82;3.03;;;4.20;99.90;;;;;;5016930;28;20387;-57
2020/12/27 02:24:23;;;;;;;8.10;2.95;;;4.30;99.90;;;;;;5034868;28;20029;-57
2020/12/27 02:27:00;;;;;;;7.03;2.78;;;4.30;99.90;;;;;;5034805;28;20052;-58
2020/12/27 02:29:27;;;;;;;9.00;3.03;;;4.40;99.90;;;;;;5016624;28;20022;-57
2020/12/27 02:31:53;;;;;;;8.40;2.80;;;4.30;99.90;;;;;;5016229;28;20033;-56
2020/12/27 02:34:23;;;;;;;7.07;2.78;;;4.30;99.90;;;;;;5034407;28;20087;-58
2020/12/27 02:36:49;;;;;;;6.10;2.63;;;4.30;99.90;;;;;;5016980;28;20100;-50
2020/12/27 02:39:16;;;;;;;8.88;3.17;;;4.30;99.90;;;;;;5016547;28;20489;-57
2020/12/27 02:41:42;;;;;;;9.45;2.83;;;4.30;99.90;;;;;;5033104;28;20053;-57
2020/12/27 02:44:09;;;;;;;7.68;3.10;;;4.30;99.90;;;;;;5034104;28;20108;-58
2020/12/27 02:46:35;;;;;;;7.60;2.83;;;4.30;99.90;;;;;;5034149;28;20033;-59
2020/12/27 02:49:02;;;;;;;7.97;2.90;;;4.40;99.90;;;;;;5016150;28;20397;-57
2020/12/27 02:51:28;;;;;;;7.43;3.10;;;4.40;99.90;;;;;;5034310;28;20056;-58
2020/12/27 02:53:55;;;;;;;9.68;3.38;;;4.40;99.90;;;;;;5034305;28;20437;-58
2020/12/27 02:56:26;;;;;;;8.02;3.00;;;4.40;99.90;;;;;;5034171;28;20021;-58
2020/12/27 02:58:54;;;;;;;7.00;2.67;;;4.30;99.90;;;;;;5016494;28;20493;-55
2020/12/27 03:01:20;;;;;;;8.45;2.80;;;4.40;99.90;;;;;;5034374;28;20431;-58
2020/12/27 03:03:48;;;;;;;7.70;2.80;;;4.30;99.90;;;;;;5016690;28;20033;-58
2020/12/27 03:06:14;;;;;;;8.38;2.92;;;4.40;99.90;;;;;;5034369;28;20030;-58
2020/12/27 03:08:40;;;;;;;7.20;2.70;;;4.40;99.90;;;;;;5033711;28;20033;-58
2020/12/27 03:11:07;;;;;;;8.07;3.00;;;4.40;99.90;;;;;;5034115;28;20120;-49
2020/12/27 03:13:33;;;;;;;8.02;2.75;;;4.40;99.90;;;;;;5033292;28;20036;-58
2020/12/27 03:16:04;;;;;;;7.32;2.72;;;4.50;99.90;;;;;;5015928;28;20547;-55
2020/12/27 03:18:30;;;;;;;7.30;2.65;;;4.50;99.90;;;;;;5033523;28;20075;-58
2020/12/27 03:20:56;;;;;;;9.00;3.58;;;4.50;99.90;;;;;;5015774;28;20021;-57
2020/12/27 03:23:23;;;;;;;8.25;2.70;;;4.50;99.90;;;;;;5033577;28;20029;-58
2020/12/27 03:25:49;;;;;;;6.10;2.50;;;4.50;99.90;;;;;;5034032;28;20105;-58
2020/12/27 03:28:15;;;;;;;8.05;2.60;;;4.50;99.90;;;;;;5033712;28;20036;-53
2020/12/27 03:30:41;;;;;;;7.30;2.80;;;4.50;99.90;;;;;;5014832;28;20021;-58
2020/12/27 03:33:07;;;;;;;7.65;2.70;;;4.60;99.90;;;;;;5014663;28;20445;-56
2020/12/27 03:35:33;;;;;;;7.55;2.80;;;4.60;99.90;;;;;;5033146;28;20029;-52
2020/12/27 03:37:59;;;;;;;6.25;2.80;;;4.60;99.90;;;;;;5033485;28;20539;-58
2020/12/27 03:40:25;;;;;;;6.28;2.67;;;4.50;99.90;;;;;;5015152;28;20128;-57
2020/12/27 03:42:51;;;;;;;6.10;2.90;;;4.60;99.90;;;;;;5033575;28;20056;-58
2020/12/27 03:45:17;;;;;;;8.52;2.95;;;4.60;99.90;;;;;;5010888;28;20026;-57
2020/12/27 03:47:43;;;;;;;5.38;2.70;;;4.70;99.90;;;;;;5015274;28;20030;-54
2020/12/27 03:50:08;;;;;;;5.95;3.13;;;4.70;99.90;;;;;;5015153;28;20022;-58
2020/12/27 03:52:34;;;;;;;8.25;2.88;;;4.70;99.90;;;;;;5015372;28;20033;-58
2020/12/27 03:55:00;;;;;;;6.15;2.80;;;4.70;99.90;;;;;;5026164;28;20489;-57
2020/12/27 03:57:26;;;;;;;6.60;2.78;;;4.70;99.90;;;;;;5032999;28;20040;-57
2020/12/27 03:59:52;;;;;;;7.03;2.90;;;4.70;99.90;;;;;;5033122;28;20024;-59
2020/12/27 04:02:17;;;;;;;8.07;2.88;;;4.80;99.90;;;;;;5015275;28;20021;-55
2020/12/27 04:04:43;;;;;;;5.47;2.83;;;4.70;99.90;;;;;;5032883;28;20025;-55
2020/12/27 04:07:09;;;;;;;6.07;2.88;;;4.70;99.90;;;;;;5032750;28;20034;-55
2020/12/27 04:09:35;;;;;;;6.47;2.80;;;4.80;99.90;;;;;;5032451;28;20406;-57
2020/12/27 04:12:01;;;;;;;7.80;2.90;;;4.80;99.90;;;;;;5032934;28;20032;-58
2020/12/27 04:14:27;;;;;;;5.97;2.90;;;4.70;99.90;;;;;;5031810;28;20033;-56
2020/12/27 04:16:53;;;;;;;7.05;2.90;;;4.70;99.90;;;;;;5032617;28;20481;-55
2020/12/27 04:19:19;;;;;;;6.78;2.88;;;4.70;99.90;;;;;;5032483;28;20025;-55
2020/12/27 04:21:46;;;;;;;7.88;2.80;;;4.80;99.90;;;;;;5032892;28;20049;-56
2020/12/27 04:24:12;;;;;;;7.90;3.20;;;4.80;99.90;;;;;;5015168;28;20540;-56
2020/12/27 04:26:38;;;;;;;8.65;3.00;;;4.80;99.90;;;;;;5032618;28;20104;-55
2020/12/27 04:29:04;;;;;;;9.70;3.47;;;4.80;99.90;;;;;;5032258;28;20103;-56
2020/12/27 04:31:30;;;;;;;9.43;3.00;;;4.80;99.90;;;;;;5014700;28;20032;-53
2020/12/27 04:33:56;;;;;;;7.07;2.72;;;4.80;99.90;;;;;;5032632;28;20389;-58
2020/12/27 04:36:23;;;;;;;7.00;3.00;;;4.80;99.90;;;;;;5032675;28;20029;-58
2020/12/27 04:38:49;;;;;;;6.45;3.10;;;4.80;99.90;;;;;;5032099;28;20486;-59
2020/12/27 04:41:18;;;;;;;6.45;2.97;;;4.90;99.90;;;;;;5032319;28;20400;-58
2020/12/27 04:43:45;;;;;;;7.32;2.90;;;4.80;99.90;;;;;;5032167;28;20113;-58
2020/12/27 04:46:12;;;;;;;6.25;2.83;;;4.80;99.90;;;;;;5006411;28;20037;-56
2020/12/27 04:48:40;;;;;;;7.78;3.10;;;4.80;99.90;;;;;;5031886;28;20071;-56
2020/12/27 04:51:07;;;;;;;6.37;2.90;;;4.80;99.90;;;;;;5032198;28;20547;-56
2020/12/27 04:53:34;;;;;;;7.25;2.90;;;4.80;99.90;;;;;;5014195;28;20029;-58
2020/12/27 04:56:05;;;;;;;10.18;3.35;;;4.90;99.90;;;;;;5013642;28;20387;-56
2020/12/27 04:58:31;;;;;;;8.38;2.90;;;4.80;99.90;;;;;;5014002;28;20076;-58
2020/12/27 05:01:01;;;;;;;7.22;3.03;;;4.80;99.90;;;;;;5031817;28;20032;-57
2020/12/27 05:03:27;;;;;;;7.07;2.97;;;4.80;99.90;;;;;;5014189;28;20033;-57
2020/12/27 05:05:55;;;;;;;17.45;3.55;;;4.90;99.90;;;;;;5032327;28;20033;-55
2020/12/27 05:08:21;;;;;;;7.65;3.03;;;4.80;99.90;;;;;;5031720;28;20025;-54
2020/12/27 05:10:47;;;;;;;6.05;3.08;;;4.80;99.90;;;;;;5051191;23;20049;-57
2020/12/27 05:13:14;;;;;;;7.40;2.90;;;4.90;99.90;;;;;;5037341;28;20040;-50
2020/12/27 05:15:41;;;;;;;7.22;3.05;;;4.90;99.90;;;;;;5046905;28;20081;-55
2020/12/27 05:18:09;;;;;;;6.93;3.25;;;4.90;99.90;;;;;;5045234;28;20166;-50
2020/12/27 05:20:36;;;;;;;6.03;3.10;;;4.90;99.90;;;;;;5046502;28;20424;-56
2020/12/27 05:23:07;;;;;;;7.32;3.17;;;5.00;99.90;;;;;;5054428;28;20059;-55
2020/12/27 05:25:35;;;;;;;7.05;3.10;;;5.00;99.90;;;;;;5053652;28;20025;-54
2020/12/27 05:28:07;;;;;;;6.63;3.30;;;5.00;99.90;;;;;;5054645;28;20025;-57
2020/12/27 05:30:33;;;;;;;6.72;3.30;;;5.00;99.90;;;;;;5053822;28;20047;-54
2020/12/27 05:32:59;;;;;;;6.28;3.00;;;5.00;99.90;;;;;;5049997;28;20051;-57
2020/12/27 05:35:25;;;;;;;8.45;3.00;;;5.00;99.90;;;;;;5050367;28;20460;-56
2020/12/27 05:37:51;;;;;;;6.40;3.13;;;5.00;99.90;;;;;;5051321;28;20032;-58
2020/12/27 05:40:19;;;;;;;7.35;2.92;;;5.00;99.90;;;;;;5050734;28;20025;-52
2020/12/27 05:42:46;;;;;;;7.43;3.13;;;5.00;99.90;;;;;;5050114;28;20124;-58
2020/12/27 05:45:19;;;;;;;6.95;3.30;;;5.00;99.90;;;;;;5050270;28;20079;-54
2020/12/27 05:47:46;;;;;;;5.85;3.10;;;5.10;99.90;;;;;;5041603;28;20140;-56
2020/12/27 05:50:14;;;;;;;7.45;3.00;;;5.10;99.90;;;;;;5050985;28;20116;-52
2020/12/27 05:52:58;;;;;;;7.88;3.40;;;5.10;99.90;;;;;;5051180;28;20061;-58
2020/12/27 05:55:25;;;;;;;6.75;3.15;;;5.10;99.90;;;;;;5051323;28;20100;-55
2020/12/27 05:57:52;;;;;;;8.07;3.17;;;5.10;99.90;;;;;;5049827;28;20170;-55
2020/12/27 06:00:23;;;;;;;5.38;3.00;;;5.10;99.90;;;;;;5051164;28;20074;-57
2020/12/27 06:02:59;;;;;;;7.53;3.20;;;5.10;99.90;;;;;;5051313;28;20452;-55
2020/12/27 06:05:50;;;;;;;6.93;3.10;;;5.10;99.90;;;;;;5051298;28;20081;-58
2020/12/27 06:08:27;;;;;;;5.97;2.80;;;5.00;99.90;;;;;;5054529;28;20029;-56
2020/12/27 06:11:05;;;;;;;6.82;2.90;;;5.10;99.90;;;;;;5036432;28;20069;-53
2020/12/27 06:14:08;;;;;;;6.65;3.00;;;5.10;99.90;;;;;;5054877;28;20064;-51
2020/12/27 06:16:45;;;;;;;8.30;3.20;;;5.10;99.90;;;;;;5050523;28;20575;-52
2020/12/27 06:19:23;;;;;;;6.87;2.90;;;5.10;99.90;;;;;;5052402;28;20025;-57
2020/12/27 06:22:10;;;;;;;7.70;3.10;;;5.10;99.90;;;;;;5054664;28;20400;-56
2020/12/27 06:24:38;;;;;;;6.63;3.00;;;5.10;99.90;;;;;;5054524;28;20040;-57
2020/12/27 06:27:05;;;;;;;7.97;3.70;;;5.10;99.90;;;;;;5024720;28;20034;-51
2020/12/27 06:29:45;;;;;;;6.28;3.30;;;5.10;99.90;;;;;;5053910;28;20477;-52
2020/12/27 06:32:15;;;;;;;6.82;3.40;;;5.10;99.90;;;;;;5054327;28;20399;-55
2020/12/27 06:34:40;;;;;;;6.57;3.42;;;5.10;99.90;;;;;;5054301;28;20025;-56
2020/12/27 06:37:07;;;;;;;8.35;4.05;;;5.20;99.90;;;;;;5054217;28;20032;-56
2020/12/27 06:39:33;;;;;;;6.28;3.10;;;5.20;99.90;;;;;;5053884;28;20046;-53
2020/12/27 06:42:11;;;;;;;7.72;3.13;;;5.10;99.90;;;;;;5054178;28;20060;-54
2020/12/27 06:44:50;;;;;;;5.10;2.80;;;5.20;99.90;;;;;;5054178;28;20121;-56
2020/12/27 06:47:17;;;;;;;6.38;3.15;;;5.20;99.90;;;;;;5051628;28;20116;-54
2020/12/27 06:49:44;;;;;;;7.45;3.10;;;5.20;99.90;;;;;;5047700;28;20055;-57
2020/12/27 06:52:20;;;;;;;6.15;3.10;;;5.20;99.90;;;;;;5036062;28;20029;-52
2020/12/27 06:54:48;;;;;;;5.95;3.10;;;5.20;99.90;;;;;;5053857;28;20310;-51
2020/12/27 06:57:47;;;;;;;6.80;3.20;;;5.20;99.90;;;;;;5053064;28;20396;-51
2020/12/27 07:00:27;;;;;;;5.85;3.05;;;5.20;99.90;;;;;;5053455;28;20119;-55
2020/12/27 07:03:09;;;;;;;7.82;3.10;;;5.20;99.90;;;;;;5054342;28;20624;-53
2020/12/27 07:05:40;;;;;;;7.53;3.10;;;5.20;99.90;;;;;;5052685;28;20387;-57
2020/12/27 07:08:10;;;;;;;7.10;3.13;;;5.20;99.90;;;;;;5053678;28;20152;-53
2020/12/27 07:10:39;;;;;;;7.50;3.30;;;5.20;99.90;;;;;;5053176;28;20029;-53
2020/12/27 07:13:06;;;;;;;6.65;3.17;;;5.20;99.90;;;;;;5053590;28;20369;-54
2020/12/27 07:15:33;;;;;;;7.55;2.95;;;5.20;99.90;;;;;;5053710;28;20110;-53
2020/12/27 07:18:08;;;;;;;7.15;3.25;;;5.20;99.90;;;;;;5035511;28;20021;-54
2020/12/27 07:20:37;;;;;;;6.78;3.20;;;5.20;99.90;;;;;;5046996;28;20029;-54
2020/12/27 07:23:11;;;;;;;5.60;3.03;;;5.30;99.90;;;;;;5052199;28;20033;-54
2020/12/27 07:25:42;;;;;;;5.85;3.10;;;5.30;99.90;;;;;;5053422;28;20419;-53
2020/12/27 07:28:08;;;;;;;6.80;3.35;;;5.30;99.90;;;;;;5053358;28;20439;-56
2020/12/27 07:30:35;;;;;;;6.40;3.20;;;5.30;99.90;;;;;;5053129;28;20021;-54
2020/12/27 07:33:07;;;;;;;5.57;2.90;;;5.30;99.90;;;;;;5052223;28;20032;-53
2020/12/27 07:35:35;;;;;;;6.40;3.20;;;5.30;99.90;;;;;;5052003;28;20029;-56
2020/12/27 07:38:02;;;;;;;7.15;3.13;;;5.30;99.90;;;;;;5053431;28;20028;-54
2020/12/27 07:40:33;;;;;;;7.05;3.30;;;5.40;99.90;;;;;;5053215;28;20052;-54
2020/12/27 07:43:01;;;;;;;7.43;3.28;;;5.30;99.90;;;;;;5053007;28;20496;-53
2020/12/27 07:45:27;;;;;;;6.07;3.30;;;5.40;99.90;;;;;;5053161;28;20485;-52
2020/12/27 07:47:53;;;;;;;7.47;3.55;;;5.40;99.90;;;;;;5052757;28;20727;-54
2020/12/27 07:50:20;;;;;;;7.35;3.25;;;5.30;99.90;;;;;;5052781;28;20120;-54
2020/12/27 07:52:56;;;;;;;7.32;3.30;;;5.30;99.90;;;;;;5053332;28;20039;-53
2020/12/27 07:55:41;;;;;;;8.60;3.40;;;5.30;99.90;;;;;;5015160;28;20032;-58
2020/12/27 07:58:07;;;;;;;6.47;3.53;;;5.30;99.90;;;;;;5015154;28;20113;-55
2020/12/27 08:00:34;;;;;;;6.65;3.50;;;5.30;99.90;;;;;;5032684;28;20032;-53
2020/12/27 08:03:07;;;;;;;7.18;3.95;;;5.30;99.90;;;;;;5032707;28;20034;-56
2020/12/27 08:05:37;;;;;;;6.00;3.30;;;5.30;99.90;;;;;;5022411;28;20039;-55
2020/12/27 08:08:12;;;;;;;6.32;3.35;;;5.30;99.90;;;;;;5038000;28;20032;-54
2020/12/27 08:10:41;;;;;;;7.20;3.40;;;5.30;99.90;;;;;;5051938;28;20067;-56
2020/12/27 08:13:07;;;;;;;6.70;3.20;;;5.30;99.90;;;;;;5052175;28;20511;-56
2020/12/27 08:15:38;;;;;;;7.65;3.50;;;5.20;99.90;;;;;;5052448;28;20036;-56
2020/12/27 08:18:10;;;;;;;6.70;3.15;;;5.20;99.90;;;;;;5051158;28;20437;-56
2020/12/27 08:20:48;;;;;;;6.25;3.05;;;5.20;99.90;;;;;;5051872;28;20104;-56
2020/12/27 08:23:14;;;;;;;6.43;3.20;;;5.20;99.90;;;;;;5052583;28;20037;-55
2020/12/27 08:25:40;;;;;;;6.47;3.10;;;5.20;99.90;;;;;;5052530;28;20393;-52
2020/12/27 08:28:11;;;;;;;6.38;2.90;;;5.20;99.90;;;;;;5052281;28;20032;-55
2020/12/27 08:30:37;;;;;;;6.20;3.10;;;5.30;99.90;;;;;;5051065;28;20017;-58
2020/12/27 08:33:13;;;;;;;7.43;3.30;;;5.30;99.90;;;;;;5050848;28;20036;-54
2020/12/27 08:35:44;;;;;;;5.90;3.15;;;5.40;99.90;;;;;;5051259;28;20048;-58
2020/12/27 08:38:23;;;;;;;6.10;3.20;;;5.40;99.90;;;;;;5052217;28;20104;-56
2020/12/27 08:41:07;;;;;;;6.25;3.13;;;5.40;99.90;;;;;;5052437;28;20025;-57
2020/12/27 08:43:59;;;;;;;6.63;3.30;;;5.40;99.90;;;;;;5052609;28;20037;-57
2020/12/27 08:46:38;;;;;;;8.00;3.42;;;5.40;99.90;;;;;;5052056;28;20029;-56
2020/12/27 08:49:12;;;;;;;5.50;2.90;;;5.50;99.90;;;;;;5051424;28;20033;-53
2020/12/27 08:51:42;;;;;;;7.18;3.50;;;5.50;99.90;;;;;;5051874;28;20025;-58
2020/12/27 08:54:11;;;;;;;6.47;3.25;;;5.60;99.90;;;;;;5036564;28;20036;-56
2020/12/27 08:56:37;;;;;;;6.10;3.40;;;5.60;99.90;;;;;;5051749;28;20021;-54
2020/12/27 08:59:03;;;;;;;7.45;3.30;;;5.60;99.90;;;;;;5051236;28;20055;-59
2020/12/27 09:01:30;;;;;;;5.90;3.28;;;5.60;99.90;;;;;;5051810;28;20430;-52
2020/12/27 09:03:56;;;;;;;6.47;3.10;;;5.70;99.90;;;;;;5050780;28;20068;-55
2020/12/27 09:06:23;;;;;;;5.75;3.08;;;5.80;99.90;;;;;;5051394;28;20033;-54
2020/12/27 09:08:57;;;;;;;6.72;3.20;;;5.80;99.90;;;;;;5051289;28;20040;-51
2020/12/27 09:11:23;;;;;;;5.45;2.95;;;5.70;99.90;;;;;;5051575;28;20033;-54
2020/12/27 09:13:49;;;;;;;6.00;3.20;;;5.70;99.90;;;;;;5051515;28;20025;-56
2020/12/27 09:16:32;;;;;;;8.45;3.10;;;5.70;99.90;;;;;;5051757;28;20043;-54
2020/12/27 09:19:07;;;;;;;5.82;3.15;;;5.70;99.90;;;;;;5033421;28;20032;-53
2020/12/27 09:21:37;;;;;;;8.52;3.40;;;5.70;99.90;;;;;;5042433;28;20122;-53
2020/12/27 09:24:14;;;;;;;5.60;3.08;;;5.70;99.90;;;;;;5050900;28;20041;-54
2020/12/27 09:26:40;;;;;;;6.93;3.10;;;5.70;99.90;;;;;;5051679;28;20039;-53
2020/12/27 09:29:18;;;;;;;5.28;3.00;;;5.70;99.90;;;;;;5049595;28;20032;-54
2020/12/27 09:31:44;;;;;;;6.18;3.00;;;5.70;99.90;;;;;;5051720;28;20033;-53
2020/12/27 09:34:10;;;;;;;6.18;3.00;;;5.80;99.90;;;;;;5051469;28;20029;-54
2020/12/27 09:36:38;;;;;;;5.82;3.00;;;5.70;99.90;;;;;;5046958;28;20075;-55
2020/12/27 09:39:04;;;;;;;7.05;3.17;;;5.70;99.90;;;;;;5030086;28;20025;-55
2020/12/27 09:41:36;;;;;;;6.65;3.00;;;5.70;99.90;;;;;;5052316;28;20025;-55
2020/12/27 09:44:02;;;;;;;6.47;3.20;;;5.70;99.90;;;;;;5037761;28;20439;-55
2020/12/27 09:46:44;;;;;;;5.85;2.90;;;5.70;99.90;;;;;;5050348;28;20104;-56
2020/12/27 09:49:24;;;;;;;6.57;3.10;;;5.70;99.90;;;;;;5052561;28;20029;-55
2020/12/27 09:52:13;;;;;;;7.00;3.10;;;5.80;99.90;;;;;;5042024;28;20033;-54
2020/12/27 09:54:40;;;;;;;5.78;3.15;;;5.70;99.90;;;;;;5039685;28;20032;-56
2020/12/27 09:57:16;;;;;;;5.60;3.20;;;5.90;99.90;;;;;;5054920;28;20017;-52
2020/12/27 09:59:46;;;;;;;6.13;3.20;;;5.90;99.90;;;;;;5054585;28;20107;-52
2020/12/27 10:02:12;;;;;;;6.93;3.33;;;5.90;99.90;;;;;;5055200;28;20021;-56
2020/12/27 10:04:38;;;;;;;6.70;3.35;;;5.90;99.90;;;;;;5054946;28;20028;-56
2020/12/27 10:07:04;;;;;;;7.60;3.50;;;5.90;99.90;;;;;;5054579;28;20036;-55
2020/12/27 10:09:31;;;;;;;5.75;2.95;;;5.80;99.90;;;;;;5050363;28;20037;-51
2020/12/27 10:11:56;;;;;;;6.78;3.10;;;5.80;99.90;;;;;;5054566;28;20045;-56
2020/12/27 10:14:22;;;;;;;7.57;3.38;;;5.80;99.90;;;;;;5055063;28;20499;-56
2020/12/27 10:16:48;;;;;;;6.20;3.00;;;5.60;99.90;;;;;;5054748;28;20029;-54
2020/12/27 10:19:14;;;;;;;6.90;3.42;;;5.50;99.90;;;;;;5053959;28;20021;-57
2020/12/27 10:21:39;;;;;;;6.38;3.30;;;5.50;99.90;;;;;;5054121;28;20028;-57
2020/12/27 10:24:05;;;;;;;7.28;3.25;;;5.50;99.90;;;;;;5054709;28;20480;-55
2020/12/27 10:26:31;;;;;;;6.50;3.10;;;5.40;99.90;;;;;;5054613;28;20036;-56
2020/12/27 10:28:56;;;;;;;8.48;3.10;;;5.40;99.90;;;;;;5053866;28;20040;-57
2020/12/27 10:31:22;;;;;;;5.40;3.10;;;5.50;99.90;;;;;;5054246;28;20025;-54
2020/12/27 10:33:47;;;;;;;7.15;4.15;;;5.50;99.90;;;;;;5053470;28;20025;-54
2020/12/27 10:36:13;;;;;;;8.00;3.10;;;5.60;99.90;;;;;;5050425;28;20393;-57
2020/12/27 10:38:39;;;;;;;6.70;2.90;;;5.50;99.90;;;;;;5048021;28;20112;-53
2020/12/27 10:41:06;;;;;;;7.22;2.90;;;5.50;99.90;;;;;;5048531;28;20029;-53
2020/12/27 10:43:32;;;;;;;6.00;3.17;;;5.50;99.90;;;;;;5052099;28;20036;-51
2020/12/27 10:46:03;;;;;;;4.43;2.60;;;5.60;99.90;;;;;;5042449;28;20487;-54
2020/12/27 10:48:30;;;;;;;6.05;3.00;;;5.70;99.90;;;;;;5038631;28;20396;-54
2020/12/27 10:50:55;;;;;;;6.97;2.90;;;5.70;99.90;;;;;;5035313;28;20484;-53
2020/12/27 10:53:21;;;;;;;5.32;2.95;;;5.70;99.90;;;;;;5031217;28;20071;-53
2020/12/27 10:55:50;;;;;;;8.45;3.20;;;5.80;99.90;;;;;;5051185;28;20409;-53
2020/12/27 10:58:16;;;;;;;7.35;3.22;;;5.80;99.90;;;;;;5045487;28;20083;-50
2020/12/27 11:00:43;;;;;;;7.43;3.20;;;5.80;99.90;;;;;;5053522;28;20063;-50
2020/12/27 11:03:09;;;;;;;6.97;2.97;;;5.80;99.90;;;;;;5053383;28;20048;-52
2020/12/27 11:05:34;;;;;;;7.22;3.40;;;5.90;99.90;;;;;;5044354;28;20579;-53
2020/12/27 11:08:00;;;;;;;5.78;3.05;;;5.90;99.90;;;;;;5047921;28;20035;-53
2020/12/27 11:10:26;;;;;;;6.97;3.22;;;5.90;99.90;;;;;;5044445;28;20034;-50
2020/12/27 11:12:52;;;;;;;6.55;3.30;;;5.90;99.90;;;;;;5063690;23;20768;-55
2020/12/27 11:15:17;;;;;;;5.97;2.92;;;6.00;99.90;;;;;;5066602;28;20016;-54
2020/12/27 11:17:43;;;;;;;7.32;3.40;;;6.00;99.90;;;;;;5063820;28;20105;-56
2020/12/27 11:20:13;;;;;;;6.93;3.10;;;6.00;99.90;;;;;;5079305;28;20020;-53
2020/12/27 11:22:41;;;;;;;7.03;3.33;;;6.00;99.90;;;;;;5044916;28;20028;-51
2020/12/27 11:25:08;;;;;;;6.45;3.00;;;6.00;99.90;;;;;;5027190;28;20028;-58
2020/12/27 11:27:34;;;;;;;6.72;3.30;;;6.10;99.90;;;;;;5033158;28;20032;-55
2020/12/27 11:30:00;;;;;;;9.82;3.35;;;6.00;99.90;;;;;;5032688;28;20025;-51
2020/12/27 11:32:27;;;;;;;7.18;3.20;;;6.00;99.90;;;;;;5032236;28;20108;-54
2020/12/27 11:34:52;;;;;;;5.55;2.92;;;6.10;99.90;;;;;;5051742;28;20030;-54
2020/12/27 11:37:18;;;;;;;5.30;2.90;;;6.10;99.90;;;;;;5034904;28;20044;-50
2020/12/27 11:39:44;;;;;;;6.95;3.30;;;6.10;99.90;;;;;;5032599;28;20056;-53
2020/12/27 11:42:09;;;;;;;7.70;3.45;;;6.10;99.90;;;;;;5049807;28;20017;-53
2020/12/27 11:44:35;;;;;;;11.00;3.63;;;6.10;99.90;;;;;;5051656;28;20025;-56
2020/12/27 11:47:04;;;;;;;6.20;3.17;;;6.10;99.90;;;;;;5043840;28;20037;-55
2020/12/27 11:49:30;;;;;;;7.00;3.20;;;6.20;99.90;;;;;;5038936;28;20079;-53
2020/12/27 11:51:56;;;;;;;8.25;3.60;;;6.20;99.90;;;;;;5051564;28;20477;-54
2020/12/27 11:54:21;;;;;;;7.90;3.28;;;6.20;99.90;;;;;;5052512;28;20025;-56
2020/12/27 11:56:48;;;;;;;7.88;3.40;;;6.20;99.90;;;;;;5052680;28;20017;-51
2020/12/27 11:59:14;;;;;;;9.68;3.50;;;6.20;99.90;;;;;;5050933;28;20412;-54
2020/12/27 12:01:40;;;;;;;6.25;3.20;;;6.20;99.90;;;;;;5051302;28;20021;-53
2020/12/27 12:04:06;;;;;;;6.57;3.20;;;6.20;99.90;;;;;;5052504;28;20036;-53
2020/12/27 12:06:31;;;;;;;5.88;2.80;;;6.10;99.90;;;;;;5050942;28;20025;-56
2020/12/27 12:08:57;;;;;;;8.25;3.35;;;6.10;99.90;;;;;;5051582;28;20408;-54
2020/12/27 12:11:23;;;;;;;7.00;3.22;;;6.00;99.90;;;;;;5045798;28;20040;-53
2020/12/27 12:13:50;;;;;;;9.02;3.40;;;5.90;99.90;;;;;;5031156;28;20029;-53
2020/12/27 12:16:21;;;;;;;7.68;3.20;;;5.80;99.90;;;;;;5050856;28;20044;-51
2020/12/27 12:18:48;;;;;;;6.75;2.95;;;5.70;99.90;;;;;;5049335;28;20025;-54
2020/12/27 12:21:14;;;;;;;7.80;3.20;;;5.50;99.90;;;;;;5052791;28;20024;-52
2020/12/27 12:23:40;;;;;;;7.50;3.40;;;5.50;99.90;;;;;;5051078;28;20082;-53
2020/12/27 12:26:05;;;;;;;7.95;3.40;;;5.50;99.90;;;;;;5052216;28;20033;-54
2020/12/27 12:28:31;;;;;;;6.75;3.25;;;5.50;99.90;;;;;;5051851;28;20035;-53
2020/12/27 12:30:57;;;;;;;7.53;3.40;;;5.50;99.90;;;;;;5053240;28;20043;-54
2020/12/27 12:33:23;;;;;;;9.60;4.03;;;5.40;99.90;;;;;;5048374;28;20036;-51
2020/12/27 12:35:49;;;;;;;9.77;4.60;;;5.30;99.90;;;;;;5046726;28;20059;-53
2020/12/27 12:38:15;;;;;;;12.07;6.35;;;5.10;99.90;;;;;;5049056;28;20507;-53
2020/12/27 12:40:40;;;;;;;14.27;9.90;;;5.00;99.90;;;;;;5048827;28;20033;-54
2020/12/27 12:43:06;;;;;;;17.08;11.07;;;4.90;99.90;;;;;;5051935;28;20368;-51
2020/12/27 12:45:31;;;;;;;15.80;11.10;;;4.80;99.90;;;;;;5055453;28;20383;-54
2020/12/27 12:47:57;;;;;;;15.10;10.38;;;4.80;99.90;;;;;;5035877;28;20034;-52
2020/12/27 12:50:24;;;;;;;14.75;10.13;;;4.70;99.90;;;;;;5030271;28;20033;-53
2020/12/27 12:52:50;;;;;;;13.05;7.55;;;4.60;99.90;;;;;;5030532;28;20032;-51
2020/12/27 12:55:16;;;;;;;13.75;7.57;;;4.70;99.90;;;;;;5038798;28;20024;-55
2020/12/27 12:57:42;;;;;;;14.50;8.90;;;4.60;99.90;;;;;;5048383;28;20021;-51
2020/12/27 13:00:08;;;;;;;14.40;9.60;;;4.60;99.90;;;;;;5049406;28;20029;-49